sensor_id;sensor_type;location;lat;lon;timestamp;P1;durP1;ratioP1;P2;durP2;ratioP2
23113;SDS011;11726;50.122;8.832;2023-10-19T00:02:09;9.27;;;4.53;;
23113;SDS011;11726;50.122;8.832;2023-10-19T00:04:41;10.25;;;4.57;;
23113;SDS011;11726;50.122;8.832;2023-10-19T00:07:08;6.65;;;4.30;;
23113;SDS011;11726;50.122;8.832;2023-10-19T00:09:42;8.98;;;4.35;;
23113;SDS011;11726;50.122;8.832;2023-10-19T00:12:12;7.45;;;3.95;;
23113;SDS011;11726;50.122;8.832;2023-10-19T00:14:41;9.35;;;4.28;;
23113;SDS011;11726;50.122;8.832;2023-10-19T00:17:08;7.95;;;4.28;;
23113;SDS011;11726;50.122;8.832;2023-10-19T00:19:37;8.68;;;4.68;;
23113;SDS011;11726;50.122;8.832;2023-10-19T00:22:23;8.40;;;4.68;;
23113;SDS011;11726;50.122;8.832;2023-10-19T00:24:50;7.63;;;4.22;;
23113;SDS011;11726;50.122;8.832;2023-10-19T00:27:17;9.73;;;4.80;;
23113;SDS011;11726;50.122;8.832;2023-10-19T00:29:45;8.23;;;4.70;;
23113;SDS011;11726;50.122;8.832;2023-10-19T00:32:16;7.82;;;4.78;;
23113;SDS011;11726;50.122;8.832;2023-10-19T00:34:45;8.73;;;4.40;;
23113;SDS011;11726;50.122;8.832;2023-10-19T00:37:19;9.00;;;4.80;;
23113;SDS011;11726;50.122;8.832;2023-10-19T00:39:52;9.02;;;4.53;;
23113;SDS011;11726;50.122;8.832;2023-10-19T00:42:21;9.40;;;4.78;;
23113;SDS011;11726;50.122;8.832;2023-10-19T00:44:51;8.45;;;4.78;;
23113;SDS011;11726;50.122;8.832;2023-10-19T00:47:18;7.10;;;4.38;;
23113;SDS011;11726;50.122;8.832;2023-10-19T00:49:45;9.52;;;4.68;;
23113;SDS011;11726;50.122;8.832;2023-10-19T00:52:13;7.95;;;4.88;;
23113;SDS011;11726;50.122;8.832;2023-10-19T00:54:49;8.18;;;4.70;;
23113;SDS011;11726;50.122;8.832;2023-10-19T00:57:18;11.05;;;5.28;;
23113;SDS011;11726;50.122;8.832;2023-10-19T00:59:58;9.70;;;5.03;;
23113;SDS011;11726;50.122;8.832;2023-10-19T01:02:37;8.10;;;5.13;;
23113;SDS011;11726;50.122;8.832;2023-10-19T01:05:12;9.02;;;4.97;;
23113;SDS011;11726;50.122;8.832;2023-10-19T01:07:47;7.68;;;4.55;;
23113;SDS011;11726;50.122;8.832;2023-10-19T01:10:23;8.73;;;4.75;;
23113;SDS011;11726;50.122;8.832;2023-10-19T01:12:50;9.38;;;4.95;;
23113;SDS011;11726;50.122;8.832;2023-10-19T01:15:18;8.73;;;4.97;;
23113;SDS011;11726;50.122;8.832;2023-10-19T01:17:57;8.23;;;4.55;;
23113;SDS011;11726;50.122;8.832;2023-10-19T01:20:26;8.68;;;5.13;;
23113;SDS011;11726;50.122;8.832;2023-10-19T01:22:57;8.07;;;4.93;;
23113;SDS011;11726;50.122;8.832;2023-10-19T01:28:13;9.20;;;5.32;;
23113;SDS011;11726;50.122;8.832;2023-10-19T01:30:43;9.27;;;5.32;;
23113;SDS011;11726;50.122;8.832;2023-10-19T01:33:18;10.70;;;4.85;;
23113;SDS011;11726;50.122;8.832;2023-10-19T01:35:45;7.63;;;4.90;;
23113;SDS011;11726;50.122;8.832;2023-10-19T01:38:31;11.68;;;5.63;;
23113;SDS011;11726;50.122;8.832;2023-10-19T01:40:59;9.65;;;5.15;;
23113;SDS011;11726;50.122;8.832;2023-10-19T01:43:27;8.55;;;5.30;;
23113;SDS011;11726;50.122;8.832;2023-10-19T01:45:57;9.20;;;5.10;;
23113;SDS011;11726;50.122;8.832;2023-10-19T01:48:30;10.32;;;5.43;;
23113;SDS011;11726;50.122;8.832;2023-10-19T01:51:02;9.77;;;5.03;;
23113;SDS011;11726;50.122;8.832;2023-10-19T01:53:37;8.55;;;5.05;;
23113;SDS011;11726;50.122;8.832;2023-10-19T01:56:09;10.15;;;5.43;;
23113;SDS011;11726;50.122;8.832;2023-10-19T01:58:41;10.50;;;5.55;;
23113;SDS011;11726;50.122;8.832;2023-10-19T02:01:09;8.82;;;5.22;;
23113;SDS011;11726;50.122;8.832;2023-10-19T02:03:39;7.78;;;5.25;;
23113;SDS011;11726;50.122;8.832;2023-10-19T02:06:10;11.00;;;5.40;;
23113;SDS011;11726;50.122;8.832;2023-10-19T02:08:46;10.30;;;6.03;;
23113;SDS011;11726;50.122;8.832;2023-10-19T02:11:20;8.10;;;4.90;;
23113;SDS011;11726;50.122;8.832;2023-10-19T02:13:52;10.32;;;5.88;;
23113;SDS011;11726;50.122;8.832;2023-10-19T02:16:20;8.75;;;4.57;;
23113;SDS011;11726;50.122;8.832;2023-10-19T02:18:59;12.90;;;5.38;;
23113;SDS011;11726;50.122;8.832;2023-10-19T02:21:27;9.77;;;5.72;;
23113;SDS011;11726;50.122;8.832;2023-10-19T02:23:57;11.50;;;6.00;;
23113;SDS011;11726;50.122;8.832;2023-10-19T02:26:24;8.45;;;4.95;;
23113;SDS011;11726;50.122;8.832;2023-10-19T02:28:54;11.98;;;6.10;;
23113;SDS011;11726;50.122;8.832;2023-10-19T02:31:22;10.00;;;5.07;;
23113;SDS011;11726;50.122;8.832;2023-10-19T02:33:52;11.57;;;6.22;;
23113;SDS011;11726;50.122;8.832;2023-10-19T02:36:27;7.07;;;4.57;;
23113;SDS011;11726;50.122;8.832;2023-10-19T02:38:57;8.50;;;5.13;;
23113;SDS011;11726;50.122;8.832;2023-10-19T02:41:25;11.93;;;5.63;;
23113;SDS011;11726;50.122;8.832;2023-10-19T02:43:53;8.77;;;5.75;;
23113;SDS011;11726;50.122;8.832;2023-10-19T02:46:32;9.50;;;5.82;;
23113;SDS011;11726;50.122;8.832;2023-10-19T02:49:06;12.05;;;5.72;;
23113;SDS011;11726;50.122;8.832;2023-10-19T02:51:38;11.38;;;5.88;;
23113;SDS011;11726;50.122;8.832;2023-10-19T02:54:06;13.80;;;6.13;;
23113;SDS011;11726;50.122;8.832;2023-10-19T02:56:34;11.95;;;6.03;;
23113;SDS011;11726;50.122;8.832;2023-10-19T02:59:02;10.23;;;5.40;;
23113;SDS011;11726;50.122;8.832;2023-10-19T03:01:31;8.15;;;5.43;;
23113;SDS011;11726;50.122;8.832;2023-10-19T03:04:01;9.65;;;5.80;;
23113;SDS011;11726;50.122;8.832;2023-10-19T03:06:29;10.80;;;6.15;;
23113;SDS011;11726;50.122;8.832;2023-10-19T03:09:00;8.43;;;5.88;;
23113;SDS011;11726;50.122;8.832;2023-10-19T03:11:31;9.60;;;5.85;;
23113;SDS011;11726;50.122;8.832;2023-10-19T03:13:58;11.20;;;6.10;;
23113;SDS011;11726;50.122;8.832;2023-10-19T03:16:26;12.35;;;6.65;;
23113;SDS011;11726;50.122;8.832;2023-10-19T03:18:56;11.40;;;6.57;;
23113;SDS011;11726;50.122;8.832;2023-10-19T03:21:23;10.40;;;5.20;;
23113;SDS011;11726;50.122;8.832;2023-10-19T03:23:56;13.13;;;6.60;;
23113;SDS011;11726;50.122;8.832;2023-10-19T03:26:22;10.18;;;6.20;;
23113;SDS011;11726;50.122;8.832;2023-10-19T03:29:03;10.68;;;6.18;;
23113;SDS011;11726;50.122;8.832;2023-10-19T03:31:39;10.82;;;6.18;;
23113;SDS011;11726;50.122;8.832;2023-10-19T03:34:13;10.48;;;6.13;;
23113;SDS011;11726;50.122;8.832;2023-10-19T03:36:43;10.48;;;5.30;;
23113;SDS011;11726;50.122;8.832;2023-10-19T03:39:10;9.77;;;5.18;;
23113;SDS011;11726;50.122;8.832;2023-10-19T03:41:44;10.75;;;5.50;;
23113;SDS011;11726;50.122;8.832;2023-10-19T03:44:11;9.48;;;5.10;;
23113;SDS011;11726;50.122;8.832;2023-10-19T03:46:58;10.68;;;5.72;;
23113;SDS011;11726;50.122;8.832;2023-10-19T03:49:30;10.10;;;6.20;;
23113;SDS011;11726;50.122;8.832;2023-10-19T03:52:02;10.98;;;6.05;;
23113;SDS011;11726;50.122;8.832;2023-10-19T03:54:34;10.07;;;6.60;;
23113;SDS011;11726;50.122;8.832;2023-10-19T03:57:07;11.40;;;6.05;;
23113;SDS011;11726;50.122;8.832;2023-10-19T03:59:49;10.35;;;5.38;;
23113;SDS011;11726;50.122;8.832;2023-10-19T04:02:16;12.38;;;6.15;;
23113;SDS011;11726;50.122;8.832;2023-10-19T04:04:47;11.65;;;6.18;;
23113;SDS011;11726;50.122;8.832;2023-10-19T04:07:15;10.80;;;5.75;;
23113;SDS011;11726;50.122;8.832;2023-10-19T04:09:49;9.38;;;6.15;;
23113;SDS011;11726;50.122;8.832;2023-10-19T04:12:37;11.48;;;6.88;;
23113;SDS011;11726;50.122;8.832;2023-10-19T04:15:08;11.63;;;6.07;;
23113;SDS011;11726;50.122;8.832;2023-10-19T04:17:45;11.80;;;6.72;;
23113;SDS011;11726;50.122;8.832;2023-10-19T04:20:14;9.93;;;6.03;;
23113;SDS011;11726;50.122;8.832;2023-10-19T04:22:45;18.23;;;6.70;;
23113;SDS011;11726;50.122;8.832;2023-10-19T04:25:14;12.57;;;6.32;;
23113;SDS011;11726;50.122;8.832;2023-10-19T04:27:42;8.55;;;5.43;;
23113;SDS011;11726;50.122;8.832;2023-10-19T04:30:10;13.80;;;7.00;;
23113;SDS011;11726;50.122;8.832;2023-10-19T04:32:53;9.65;;;5.60;;
23113;SDS011;11726;50.122;8.832;2023-10-19T04:35:21;12.25;;;5.75;;
23113;SDS011;11726;50.122;8.832;2023-10-19T04:37:49;14.30;;;6.68;;
23113;SDS011;11726;50.122;8.832;2023-10-19T04:40:20;8.70;;;5.25;;
23113;SDS011;11726;50.122;8.832;2023-10-19T04:42:48;13.00;;;6.97;;
23113;SDS011;11726;50.122;8.832;2023-10-19T04:45:17;9.88;;;5.70;;
23113;SDS011;11726;50.122;8.832;2023-10-19T04:47:44;12.43;;;6.95;;
23113;SDS011;11726;50.122;8.832;2023-10-19T04:50:13;11.30;;;6.40;;
23113;SDS011;11726;50.122;8.832;2023-10-19T04:52:39;11.18;;;6.20;;
23113;SDS011;11726;50.122;8.832;2023-10-19T04:55:07;10.90;;;5.90;;
23113;SDS011;11726;50.122;8.832;2023-10-19T04:57:33;11.65;;;5.70;;
23113;SDS011;11726;50.122;8.832;2023-10-19T05:00:01;14.63;;;5.93;;
23113;SDS011;11726;50.122;8.832;2023-10-19T05:02:29;11.63;;;5.75;;
23113;SDS011;11726;50.122;8.832;2023-10-19T05:04:56;13.32;;;6.55;;
23113;SDS011;11726;50.122;8.832;2023-10-19T05:07:23;12.65;;;5.63;;
23113;SDS011;11726;50.122;8.832;2023-10-19T05:09:49;11.40;;;6.18;;
23113;SDS011;11726;50.122;8.832;2023-10-19T05:12:16;12.10;;;6.43;;
23113;SDS011;11726;50.122;8.832;2023-10-19T05:14:43;11.52;;;5.07;;
23113;SDS011;11726;50.122;8.832;2023-10-19T05:17:10;11.77;;;6.57;;
23113;SDS011;11726;50.122;8.832;2023-10-19T05:19:37;13.60;;;6.43;;
23113;SDS011;11726;50.122;8.832;2023-10-19T05:22:05;13.60;;;7.13;;
23113;SDS011;11726;50.122;8.832;2023-10-19T05:24:34;15.07;;;6.85;;
23113;SDS011;11726;50.122;8.832;2023-10-19T05:27:01;11.57;;;6.15;;
23113;SDS011;11726;50.122;8.832;2023-10-19T05:29:30;12.45;;;6.15;;
23113;SDS011;11726;50.122;8.832;2023-10-19T05:31:59;11.75;;;6.28;;
23113;SDS011;11726;50.122;8.832;2023-10-19T05:34:26;14.90;;;6.97;;
23113;SDS011;11726;50.122;8.832;2023-10-19T05:36:55;10.52;;;5.75;;
23113;SDS011;11726;50.122;8.832;2023-10-19T05:39:25;12.25;;;5.68;;
23113;SDS011;11726;50.122;8.832;2023-10-19T05:41:55;13.40;;;6.50;;
23113;SDS011;11726;50.122;8.832;2023-10-19T05:44:21;9.98;;;5.60;;
23113;SDS011;11726;50.122;8.832;2023-10-19T05:46:51;16.27;;;6.95;;
23113;SDS011;11726;50.122;8.832;2023-10-19T05:49:18;11.85;;;6.65;;
23113;SDS011;11726;50.122;8.832;2023-10-19T05:51:44;13.60;;;7.07;;
23113;SDS011;11726;50.122;8.832;2023-10-19T05:54:11;11.85;;;6.70;;
23113;SDS011;11726;50.122;8.832;2023-10-19T05:56:38;9.98;;;6.38;;
23113;SDS011;11726;50.122;8.832;2023-10-19T05:59:05;11.68;;;6.43;;
23113;SDS011;11726;50.122;8.832;2023-10-19T06:01:32;10.25;;;6.03;;
23113;SDS011;11726;50.122;8.832;2023-10-19T06:03:59;14.38;;;6.90;;
23113;SDS011;11726;50.122;8.832;2023-10-19T06:06:26;13.32;;;6.80;;
23113;SDS011;11726;50.122;8.832;2023-10-19T06:08:53;11.43;;;6.45;;
23113;SDS011;11726;50.122;8.832;2023-10-19T06:11:20;13.23;;;6.70;;
23113;SDS011;11726;50.122;8.832;2023-10-19T06:13:47;11.52;;;6.38;;
23113;SDS011;11726;50.122;8.832;2023-10-19T06:16:14;12.98;;;6.80;;
23113;SDS011;11726;50.122;8.832;2023-10-19T06:18:42;11.18;;;6.10;;
23113;SDS011;11726;50.122;8.832;2023-10-19T06:21:10;9.85;;;5.53;;
23113;SDS011;11726;50.122;8.832;2023-10-19T06:23:38;11.52;;;6.40;;
23113;SDS011;11726;50.122;8.832;2023-10-19T06:26:08;11.00;;;6.68;;
23113;SDS011;11726;50.122;8.832;2023-10-19T06:28:39;15.18;;;7.30;;
23113;SDS011;11726;50.122;8.832;2023-10-19T06:31:07;13.45;;;7.25;;
23113;SDS011;11726;50.122;8.832;2023-10-19T06:33:34;14.75;;;7.55;;
23113;SDS011;11726;50.122;8.832;2023-10-19T06:36:02;15.40;;;8.13;;
23113;SDS011;11726;50.122;8.832;2023-10-19T06:38:29;15.10;;;8.13;;
23113;SDS011;11726;50.122;8.832;2023-10-19T06:40:57;16.55;;;8.82;;
23113;SDS011;11726;50.122;8.832;2023-10-19T06:43:29;18.98;;;9.75;;
23113;SDS011;11726;50.122;8.832;2023-10-19T06:45:59;15.05;;;7.15;;
23113;SDS011;11726;50.122;8.832;2023-10-19T06:48:26;15.00;;;8.20;;
23113;SDS011;11726;50.122;8.832;2023-10-19T06:50:53;19.75;;;9.50;;
23113;SDS011;11726;50.122;8.832;2023-10-19T06:53:21;16.90;;;8.10;;
23113;SDS011;11726;50.122;8.832;2023-10-19T06:55:48;14.32;;;7.32;;
23113;SDS011;11726;50.122;8.832;2023-10-19T06:58:15;17.58;;;8.60;;
23113;SDS011;11726;50.122;8.832;2023-10-19T07:00:45;15.93;;;8.65;;
23113;SDS011;11726;50.122;8.832;2023-10-19T07:03:22;18.98;;;9.20;;
23113;SDS011;11726;50.122;8.832;2023-10-19T07:05:54;15.60;;;9.32;;
23113;SDS011;11726;50.122;8.832;2023-10-19T07:08:22;19.05;;;9.52;;
23113;SDS011;11726;50.122;8.832;2023-10-19T07:10:49;19.73;;;8.77;;
23113;SDS011;11726;50.122;8.832;2023-10-19T07:13:19;16.88;;;8.68;;
23113;SDS011;11726;50.122;8.832;2023-10-19T07:15:48;17.42;;;8.95;;
23113;SDS011;11726;50.122;8.832;2023-10-19T07:18:15;18.05;;;8.77;;
23113;SDS011;11726;50.122;8.832;2023-10-19T07:20:43;17.85;;;9.88;;
23113;SDS011;11726;50.122;8.832;2023-10-19T07:23:14;19.20;;;8.95;;
23113;SDS011;11726;50.122;8.832;2023-10-19T07:25:53;18.13;;;8.82;;
23113;SDS011;11726;50.122;8.832;2023-10-19T07:28:22;17.40;;;8.80;;
23113;SDS011;11726;50.122;8.832;2023-10-19T07:30:56;17.80;;;8.80;;
23113;SDS011;11726;50.122;8.832;2023-10-19T07:33:23;14.10;;;7.93;;
23113;SDS011;11726;50.122;8.832;2023-10-19T07:35:50;12.15;;;6.97;;
23113;SDS011;11726;50.122;8.832;2023-10-19T07:38:26;14.75;;;7.88;;
23113;SDS011;11726;50.122;8.832;2023-10-19T07:40:57;15.60;;;7.85;;
23113;SDS011;11726;50.122;8.832;2023-10-19T07:43:23;13.18;;;7.45;;
23113;SDS011;11726;50.122;8.832;2023-10-19T07:45:52;14.77;;;8.48;;
23113;SDS011;11726;50.122;8.832;2023-10-19T07:48:19;15.73;;;9.57;;
23113;SDS011;11726;50.122;8.832;2023-10-19T07:50:46;15.52;;;8.10;;
23113;SDS011;11726;50.122;8.832;2023-10-19T07:53:13;15.73;;;7.47;;
23113;SDS011;11726;50.122;8.832;2023-10-19T07:55:40;15.25;;;7.53;;
23113;SDS011;11726;50.122;8.832;2023-10-19T07:58:08;11.60;;;6.80;;
23113;SDS011;11726;50.122;8.832;2023-10-19T08:00:36;16.25;;;7.22;;
23113;SDS011;11726;50.122;8.832;2023-10-19T08:03:04;13.23;;;7.07;;
23113;SDS011;11726;50.122;8.832;2023-10-19T08:05:32;17.25;;;7.22;;
23113;SDS011;11726;50.122;8.832;2023-10-19T08:08:00;17.35;;;7.68;;
23113;SDS011;11726;50.122;8.832;2023-10-19T08:10:27;19.63;;;8.40;;
23113;SDS011;11726;50.122;8.832;2023-10-19T08:12:54;19.45;;;7.55;;
23113;SDS011;11726;50.122;8.832;2023-10-19T08:15:21;18.40;;;8.23;;
23113;SDS011;11726;50.122;8.832;2023-10-19T08:17:49;18.20;;;7.85;;
23113;SDS011;11726;50.122;8.832;2023-10-19T08:20:17;22.92;;;9.15;;
23113;SDS011;11726;50.122;8.832;2023-10-19T08:22:51;24.50;;;8.98;;
23113;SDS011;11726;50.122;8.832;2023-10-19T08:25:19;19.90;;;8.57;;
23113;SDS011;11726;50.122;8.832;2023-10-19T08:27:47;21.60;;;8.63;;
23113;SDS011;11726;50.122;8.832;2023-10-19T08:30:18;23.20;;;10.00;;
23113;SDS011;11726;50.122;8.832;2023-10-19T08:32:50;18.85;;;8.50;;
23113;SDS011;11726;50.122;8.832;2023-10-19T08:35:19;17.63;;;8.60;;
23113;SDS011;11726;50.122;8.832;2023-10-19T08:37:52;13.38;;;7.05;;
23113;SDS011;11726;50.122;8.832;2023-10-19T08:40:20;16.73;;;7.55;;
23113;SDS011;11726;50.122;8.832;2023-10-19T08:42:49;18.08;;;8.30;;
23113;SDS011;11726;50.122;8.832;2023-10-19T08:45:16;13.15;;;6.60;;
23113;SDS011;11726;50.122;8.832;2023-10-19T08:47:46;18.60;;;7.90;;
23113;SDS011;11726;50.122;8.832;2023-10-19T08:50:15;15.95;;;7.55;;
23113;SDS011;11726;50.122;8.832;2023-10-19T08:52:41;15.18;;;7.38;;
23113;SDS011;11726;50.122;8.832;2023-10-19T08:55:10;15.25;;;7.00;;
23113;SDS011;11726;50.122;8.832;2023-10-19T08:57:39;13.10;;;7.80;;
23113;SDS011;11726;50.122;8.832;2023-10-19T09:00:06;20.33;;;8.50;;
23113;SDS011;11726;50.122;8.832;2023-10-19T09:02:34;15.73;;;7.80;;
23113;SDS011;11726;50.122;8.832;2023-10-19T09:05:05;15.90;;;8.15;;
23113;SDS011;11726;50.122;8.832;2023-10-19T09:07:34;19.15;;;8.32;;
23113;SDS011;11726;50.122;8.832;2023-10-19T09:10:01;19.92;;;8.10;;
23113;SDS011;11726;50.122;8.832;2023-10-19T09:12:29;15.98;;;7.97;;
23113;SDS011;11726;50.122;8.832;2023-10-19T09:14:56;16.83;;;8.80;;
23113;SDS011;11726;50.122;8.832;2023-10-19T09:17:29;20.42;;;9.45;;
23113;SDS011;11726;50.122;8.832;2023-10-19T09:19:56;23.73;;;9.93;;
23113;SDS011;11726;50.122;8.832;2023-10-19T09:22:25;18.95;;;9.45;;
23113;SDS011;11726;50.122;8.832;2023-10-19T09:24:53;22.67;;;9.48;;
23113;SDS011;11726;50.122;8.832;2023-10-19T09:27:20;21.30;;;9.63;;
23113;SDS011;11726;50.122;8.832;2023-10-19T09:29:48;21.25;;;8.73;;
23113;SDS011;11726;50.122;8.832;2023-10-19T09:32:17;20.33;;;9.48;;
23113;SDS011;11726;50.122;8.832;2023-10-19T09:34:45;19.50;;;8.40;;
23113;SDS011;11726;50.122;8.832;2023-10-19T09:37:15;17.38;;;8.50;;
23113;SDS011;11726;50.122;8.832;2023-10-19T09:39:43;22.63;;;8.93;;
23113;SDS011;11726;50.122;8.832;2023-10-19T09:42:11;18.90;;;7.93;;
23113;SDS011;11726;50.122;8.832;2023-10-19T09:44:46;21.92;;;9.43;;
23113;SDS011;11726;50.122;8.832;2023-10-19T09:47:18;20.83;;;9.32;;
23113;SDS011;11726;50.122;8.832;2023-10-19T09:49:51;20.42;;;8.80;;
23113;SDS011;11726;50.122;8.832;2023-10-19T09:52:18;19.33;;;8.93;;
23113;SDS011;11726;50.122;8.832;2023-10-19T09:54:48;23.52;;;8.85;;
23113;SDS011;11726;50.122;8.832;2023-10-19T09:57:30;18.30;;;8.30;;
23113;SDS011;11726;50.122;8.832;2023-10-19T10:00:04;18.23;;;7.88;;
23113;SDS011;11726;50.122;8.832;2023-10-19T10:02:38;15.20;;;7.60;;
23113;SDS011;11726;50.122;8.832;2023-10-19T10:08:27;17.15;;;8.13;;
23113;SDS011;11726;50.122;8.832;2023-10-19T10:10:56;15.52;;;7.20;;
23113;SDS011;11726;50.122;8.832;2023-10-19T10:15:53;15.13;;;7.97;;
23113;SDS011;11726;50.122;8.832;2023-10-19T10:18:23;12.55;;;7.28;;
23113;SDS011;11726;50.122;8.832;2023-10-19T10:26:22;13.57;;;6.10;;
23113;SDS011;11726;50.122;8.832;2023-10-19T10:31:41;11.80;;;6.22;;
23113;SDS011;11726;50.122;8.832;2023-10-19T10:37:08;13.82;;;6.65;;
23113;SDS011;11726;50.122;8.832;2023-10-19T10:39:39;15.40;;;6.50;;
23113;SDS011;11726;50.122;8.832;2023-10-19T10:42:08;13.02;;;6.05;;
23113;SDS011;11726;50.122;8.832;2023-10-19T10:44:42;14.27;;;5.05;;
23113;SDS011;11726;50.122;8.832;2023-10-19T10:47:17;9.82;;;5.50;;
23113;SDS011;11726;50.122;8.832;2023-10-19T10:49:58;8.98;;;5.68;;
23113;SDS011;11726;50.122;8.832;2023-10-19T10:54:58;10.70;;;4.65;;
23113;SDS011;11726;50.122;8.832;2023-10-19T10:57:33;11.43;;;5.82;;
23113;SDS011;11726;50.122;8.832;2023-10-19T11:00:01;9.88;;;4.97;;
23113;SDS011;11726;50.122;8.832;2023-10-19T11:02:34;11.50;;;5.88;;
23113;SDS011;11726;50.122;8.832;2023-10-19T11:05:02;11.30;;;5.00;;
23113;SDS011;11726;50.122;8.832;2023-10-19T11:07:30;10.40;;;5.28;;
23113;SDS011;11726;50.122;8.832;2023-10-19T11:09:56;10.05;;;4.72;;
23113;SDS011;11726;50.122;8.832;2023-10-19T11:12:23;10.70;;;5.55;;
23113;SDS011;11726;50.122;8.832;2023-10-19T11:14:57;8.20;;;4.85;;
23113;SDS011;11726;50.122;8.832;2023-10-19T11:17:42;10.07;;;5.00;;
23113;SDS011;11726;50.122;8.832;2023-10-19T11:20:20;15.07;;;5.30;;
23113;SDS011;11726;50.122;8.832;2023-10-19T11:22:47;14.35;;;5.50;;
23113;SDS011;11726;50.122;8.832;2023-10-19T11:25:23;13.43;;;7.22;;
23113;SDS011;11726;50.122;8.832;2023-10-19T11:27:54;14.00;;;6.70;;
23113;SDS011;11726;50.122;8.832;2023-10-19T11:30:29;16.30;;;6.80;;
23113;SDS011;11726;50.122;8.832;2023-10-19T11:32:59;14.50;;;6.45;;
23113;SDS011;11726;50.122;8.832;2023-10-19T11:35:28;12.55;;;6.75;;
23113;SDS011;11726;50.122;8.832;2023-10-19T11:37:58;9.32;;;5.75;;
23113;SDS011;11726;50.122;8.832;2023-10-19T11:40:26;10.18;;;5.72;;
23113;SDS011;11726;50.122;8.832;2023-10-19T11:42:53;10.95;;;5.60;;
23113;SDS011;11726;50.122;8.832;2023-10-19T11:45:25;10.77;;;5.82;;
23113;SDS011;11726;50.122;8.832;2023-10-19T11:47:52;11.55;;;6.03;;
23113;SDS011;11726;50.122;8.832;2023-10-19T11:50:19;14.10;;;6.20;;
23113;SDS011;11726;50.122;8.832;2023-10-19T11:52:46;13.02;;;6.50;;
23113;SDS011;11726;50.122;8.832;2023-10-19T11:55:13;13.25;;;7.03;;
23113;SDS011;11726;50.122;8.832;2023-10-19T11:57:44;15.38;;;6.82;;
23113;SDS011;11726;50.122;8.832;2023-10-19T12:00:11;15.73;;;7.05;;
23113;SDS011;11726;50.122;8.832;2023-10-19T12:03:00;13.93;;;7.43;;
23113;SDS011;11726;50.122;8.832;2023-10-19T12:05:27;17.58;;;8.00;;
23113;SDS011;11726;50.122;8.832;2023-10-19T12:07:55;13.95;;;6.70;;
23113;SDS011;11726;50.122;8.832;2023-10-19T12:10:23;12.25;;;6.35;;
23113;SDS011;11726;50.122;8.832;2023-10-19T12:13:02;12.23;;;6.90;;
23113;SDS011;11726;50.122;8.832;2023-10-19T12:15:30;14.00;;;6.63;;
23113;SDS011;11726;50.122;8.832;2023-10-19T12:17:57;13.07;;;6.50;;
23113;SDS011;11726;50.122;8.832;2023-10-19T12:20:25;22.15;;;7.38;;
23113;SDS011;11726;50.122;8.832;2023-10-19T12:22:52;14.07;;;6.88;;
23113;SDS011;11726;50.122;8.832;2023-10-19T12:25:22;16.75;;;7.80;;
23113;SDS011;11726;50.122;8.832;2023-10-19T12:28:08;14.15;;;7.40;;
23113;SDS011;11726;50.122;8.832;2023-10-19T12:30:40;19.42;;;7.82;;
23113;SDS011;11726;50.122;8.832;2023-10-19T12:33:08;17.67;;;6.45;;
23113;SDS011;11726;50.122;8.832;2023-10-19T12:35:39;15.55;;;6.93;;
23113;SDS011;11726;50.122;8.832;2023-10-19T12:38:26;11.25;;;6.47;;
23113;SDS011;11726;50.122;8.832;2023-10-19T12:40:53;17.17;;;7.20;;
23113;SDS011;11726;50.122;8.832;2023-10-19T12:43:20;11.65;;;5.97;;
23113;SDS011;11726;50.122;8.832;2023-10-19T12:45:51;10.75;;;5.95;;
23113;SDS011;11726;50.122;8.832;2023-10-19T12:48:22;9.77;;;6.30;;
23113;SDS011;11726;50.122;8.832;2023-10-19T12:50:51;12.95;;;6.75;;
23113;SDS011;11726;50.122;8.832;2023-10-19T12:53:18;13.10;;;7.03;;
23113;SDS011;11726;50.122;8.832;2023-10-19T12:55:44;11.95;;;6.18;;
23113;SDS011;11726;50.122;8.832;2023-10-19T12:58:11;12.65;;;7.05;;
23113;SDS011;11726;50.122;8.832;2023-10-19T13:00:41;23.05;;;8.18;;
23113;SDS011;11726;50.122;8.832;2023-10-19T13:03:10;19.98;;;7.22;;
23113;SDS011;11726;50.122;8.832;2023-10-19T13:05:44;11.65;;;6.55;;
23113;SDS011;11726;50.122;8.832;2023-10-19T13:08:12;17.90;;;7.65;;
23113;SDS011;11726;50.122;8.832;2023-10-19T13:10:42;14.38;;;6.60;;
23113;SDS011;11726;50.122;8.832;2023-10-19T13:13:11;12.60;;;6.80;;
23113;SDS011;11726;50.122;8.832;2023-10-19T13:15:39;15.07;;;7.28;;
23113;SDS011;11726;50.122;8.832;2023-10-19T13:18:08;13.88;;;6.82;;
23113;SDS011;11726;50.122;8.832;2023-10-19T13:20:53;14.68;;;7.10;;
23113;SDS011;11726;50.122;8.832;2023-10-19T13:23:20;13.88;;;5.63;;
23113;SDS011;11726;50.122;8.832;2023-10-19T13:25:49;16.08;;;7.45;;
23113;SDS011;11726;50.122;8.832;2023-10-19T13:28:20;16.08;;;7.25;;
23113;SDS011;11726;50.122;8.832;2023-10-19T13:30:49;13.98;;;7.40;;
23113;SDS011;11726;50.122;8.832;2023-10-19T13:33:17;17.23;;;8.40;;
23113;SDS011;11726;50.122;8.832;2023-10-19T13:35:45;14.35;;;6.45;;
23113;SDS011;11726;50.122;8.832;2023-10-19T13:38:15;15.05;;;8.18;;
23113;SDS011;11726;50.122;8.832;2023-10-19T13:40:43;17.17;;;8.07;;
23113;SDS011;11726;50.122;8.832;2023-10-19T13:43:11;18.15;;;9.05;;
23113;SDS011;11726;50.122;8.832;2023-10-19T13:45:44;16.45;;;8.20;;
23113;SDS011;11726;50.122;8.832;2023-10-19T13:48:14;20.30;;;8.25;;
23113;SDS011;11726;50.122;8.832;2023-10-19T13:50:42;17.13;;;7.97;;
23113;SDS011;11726;50.122;8.832;2023-10-19T13:53:12;17.42;;;7.68;;
23113;SDS011;11726;50.122;8.832;2023-10-19T13:55:38;19.00;;;8.98;;
23113;SDS011;11726;50.122;8.832;2023-10-19T13:58:05;19.00;;;8.65;;
23113;SDS011;11726;50.122;8.832;2023-10-19T14:00:35;19.15;;;9.05;;
23113;SDS011;11726;50.122;8.832;2023-10-19T14:03:11;20.33;;;9.43;;
23113;SDS011;11726;50.122;8.832;2023-10-19T14:05:42;19.27;;;8.57;;
23113;SDS011;11726;50.122;8.832;2023-10-19T14:08:13;23.08;;;9.57;;
23113;SDS011;11726;50.122;8.832;2023-10-19T14:10:44;18.15;;;8.75;;
23113;SDS011;11726;50.122;8.832;2023-10-19T14:13:11;17.42;;;7.78;;
23113;SDS011;11726;50.122;8.832;2023-10-19T14:15:38;17.75;;;7.22;;
23113;SDS011;11726;50.122;8.832;2023-10-19T14:18:06;18.88;;;7.38;;
23113;SDS011;11726;50.122;8.832;2023-10-19T14:20:33;12.65;;;6.50;;
23113;SDS011;11726;50.122;8.832;2023-10-19T14:23:01;14.90;;;6.38;;
23113;SDS011;11726;50.122;8.832;2023-10-19T14:25:31;11.20;;;6.00;;
23113;SDS011;11726;50.122;8.832;2023-10-19T14:27:58;12.63;;;6.13;;
23113;SDS011;11726;50.122;8.832;2023-10-19T14:30:27;8.30;;;4.60;;
23113;SDS011;11726;50.122;8.832;2023-10-19T14:32:54;8.55;;;4.85;;
23113;SDS011;11726;50.122;8.832;2023-10-19T14:35:22;7.68;;;4.38;;
23113;SDS011;11726;50.122;8.832;2023-10-19T14:37:51;8.55;;;4.68;;
23113;SDS011;11726;50.122;8.832;2023-10-19T14:40:23;11.70;;;3.83;;
23113;SDS011;11726;50.122;8.832;2023-10-19T14:42:52;8.32;;;4.03;;
23113;SDS011;11726;50.122;8.832;2023-10-19T14:45:24;7.35;;;3.70;;
23113;SDS011;11726;50.122;8.832;2023-10-19T14:47:55;6.53;;;3.55;;
23113;SDS011;11726;50.122;8.832;2023-10-19T14:50:29;6.50;;;3.55;;
23113;SDS011;11726;50.122;8.832;2023-10-19T14:52:57;8.63;;;4.05;;
23113;SDS011;11726;50.122;8.832;2023-10-19T14:55:25;4.22;;;2.72;;
23113;SDS011;11726;50.122;8.832;2023-10-19T14:57:53;9.38;;;3.50;;
23113;SDS011;11726;50.122;8.832;2023-10-19T15:00:24;7.53;;;3.10;;
23113;SDS011;11726;50.122;8.832;2023-10-19T15:03:09;7.50;;;3.83;;
23113;SDS011;11726;50.122;8.832;2023-10-19T15:05:37;5.20;;;2.92;;
23113;SDS011;11726;50.122;8.832;2023-10-19T15:08:04;7.53;;;3.50;;
23113;SDS011;11726;50.122;8.832;2023-10-19T15:10:33;5.55;;;3.35;;
23113;SDS011;11726;50.122;8.832;2023-10-19T15:13:01;5.55;;;3.30;;
23113;SDS011;11726;50.122;8.832;2023-10-19T15:15:29;11.63;;;3.42;;
23113;SDS011;11726;50.122;8.832;2023-10-19T15:17:56;6.13;;;3.17;;